createdAt,value
2023-03-29T00:02:01.094Z,8.57
2023-03-29T00:04:35.907Z,8.59
2023-03-29T00:07:06.575Z,8.63
2023-03-29T00:09:37.367Z,8.56
2023-03-29T00:12:07.637Z,8.64
2023-03-29T00:14:37.083Z,8.64
2023-03-29T00:17:05.814Z,8.70
2023-03-29T00:19:36.741Z,8.68
2023-03-29T00:22:06.319Z,8.66
2023-03-29T00:24:34.257Z,8.68
2023-03-29T00:27:02.098Z,8.68
2023-03-29T00:29:29.876Z,8.75
2023-03-29T00:31:57.772Z,8.73
2023-03-29T00:34:30.844Z,8.77
2023-03-29T00:36:59.123Z,8.77
2023-03-29T00:39:28.169Z,8.68
2023-03-29T00:41:56.576Z,8.73
2023-03-29T00:44:56.907Z,8.91
2023-03-29T00:47:44.999Z,8.87
2023-03-29T00:50:38.059Z,8.84
2023-03-29T00:53:17.975Z,8.92
2023-03-29T00:56:02.548Z,8.81
2023-03-29T00:58:46.693Z,8.78
2023-03-29T01:01:28.771Z,8.87
2023-03-29T01:04:08.588Z,8.83
2023-03-29T01:06:43.583Z,8.81
2023-03-29T01:09:16.517Z,8.85
2023-03-29T01:11:54.804Z,8.87
2023-03-29T01:14:49.026Z,8.88
2023-03-29T01:17:17.176Z,8.95
2023-03-29T01:19:51.598Z,9.08
2023-03-29T01:22:28.446Z,9.01
2023-03-29T01:25:11.357Z,9.07
2023-03-29T01:27:54.676Z,8.95
2023-03-29T01:30:37.446Z,8.92
2023-03-29T01:33:38.997Z,9.00
2023-03-29T01:36:31.520Z,9.00
2023-03-29T01:39:03.693Z,9.02
2023-03-29T01:41:40.375Z,9.07
2023-03-29T01:44:50.102Z,9.12
2023-03-29T01:47:38.711Z,9.12
2023-03-29T01:50:26.744Z,9.14
2023-03-29T01:53:07.658Z,9.08
2023-03-29T01:55:45.231Z,9.11
2023-03-29T01:58:16.608Z,9.26
2023-03-29T02:00:46.648Z,9.23
2023-03-29T02:03:17.685Z,9.23
2023-03-29T02:05:46.885Z,9.32
2023-03-29T02:08:17.815Z,9.28
2023-03-29T02:10:46.129Z,9.29
2023-03-29T02:13:14.165Z,9.31
2023-03-29T02:15:44.463Z,9.33
2023-03-29T02:18:14.803Z,9.36
2023-03-29T02:20:49.694Z,9.31
2023-03-29T02:23:45.570Z,9.38
2023-03-29T02:26:14.943Z,9.43
2023-03-29T02:28:44.105Z,9.39
2023-03-29T02:31:31.281Z,9.42
2023-03-29T02:34:20.637Z,9.43
2023-03-29T02:36:56.989Z,9.43
2023-03-29T02:39:29.088Z,9.44
2023-03-29T02:41:58.381Z,9.59
2023-03-29T02:44:30.968Z,9.47
2023-03-29T02:47:13.806Z,9.50
2023-03-29T02:49:41.831Z,9.53
2023-03-29T02:52:16.213Z,9.44
2023-03-29T02:54:49.013Z,9.42
2023-03-29T02:57:17.399Z,9.46
2023-03-29T02:59:45.295Z,9.50
2023-03-29T03:02:13.808Z,9.52
2023-03-29T03:04:43.315Z,9.50
2023-03-29T03:07:12.065Z,9.50
2023-03-29T03:09:40.203Z,9.52
2023-03-29T03:12:09.973Z,9.57
2023-03-29T03:14:38.124Z,9.60
2023-03-29T03:17:06.045Z,9.63
2023-03-29T03:19:34.691Z,9.63
2023-03-29T03:22:03.285Z,9.63
2023-03-29T03:24:32.694Z,9.69
2023-03-29T03:27:00.949Z,9.54
2023-03-29T03:29:29.095Z,9.46
2023-03-29T03:32:34.522Z,9.54
2023-03-29T03:35:34.981Z,9.44
2023-03-29T03:38:02.945Z,9.50
2023-03-29T03:40:31.153Z,9.56
2023-03-29T03:42:59.599Z,9.59
2023-03-29T03:45:28.023Z,9.56
2023-03-29T03:48:02.347Z,9.63
2023-03-29T03:50:54.775Z,9.59
2023-03-29T03:53:24.924Z,9.56
2023-03-29T03:56:11.656Z,9.56
2023-03-29T03:58:57.314Z,9.59
2023-03-29T04:01:27.457Z,9.62
2023-03-29T04:04:14.578Z,9.72
2023-03-29T04:06:53.259Z,9.76
2023-03-29T04:09:22.750Z,9.87
2023-03-29T04:12:01.957Z,9.74
2023-03-29T04:14:32.283Z,9.69
2023-03-29T04:17:00.387Z,9.81
2023-03-29T04:19:48.545Z,9.67
2023-03-29T04:22:16.558Z,9.64
2023-03-29T04:24:44.426Z,9.64
2023-03-29T04:27:38.311Z,9.73
2023-03-29T04:30:13.875Z,9.72
2023-03-29T04:32:59.990Z,9.69
2023-03-29T04:35:28.826Z,9.93
2023-03-29T04:37:57.016Z,9.87
2023-03-29T04:40:25.209Z,9.81
2023-03-29T04:43:14.543Z,9.74
2023-03-29T04:45:54.325Z,9.80
2023-03-29T04:48:50.381Z,9.87
2023-03-29T04:51:24.728Z,9.87
2023-03-29T04:53:54.975Z,9.83
2023-03-29T04:56:24.937Z,9.84
2023-03-29T04:59:13.087Z,9.81
2023-03-29T05:01:41.644Z,9.89
2023-03-29T05:04:12.613Z,9.90
2023-03-29T05:06:50.040Z,9.95
2023-03-29T05:09:18.266Z,10.00
2023-03-29T05:11:51.723Z,9.95
2023-03-29T05:14:21.848Z,9.94
2023-03-29T05:16:50.323Z,9.98
2023-03-29T05:19:19.227Z,10.04
2023-03-29T05:21:51.093Z,10.07
2023-03-29T05:24:22.872Z,10.04
2023-03-29T05:26:53.650Z,10.00
2023-03-29T05:29:21.805Z,9.94
2023-03-29T05:31:55.870Z,10.10
2023-03-29T05:34:23.785Z,10.12
2023-03-29T05:36:57.063Z,10.11
2023-03-29T05:39:26.183Z,10.11
2023-03-29T05:41:55.300Z,10.07
2023-03-29T05:44:29.649Z,10.07
2023-03-29T05:47:06.730Z,10.08
2023-03-29T05:49:35.242Z,10.15
2023-03-29T05:52:09.984Z,10.22
2023-03-29T05:54:39.668Z,10.24
2023-03-29T05:57:08.515Z,10.14
2023-03-29T05:59:37.345Z,10.21
2023-03-29T06:02:06.344Z,10.24
2023-03-29T06:04:38.666Z,10.20
2023-03-29T06:07:24.933Z,10.18
2023-03-29T06:10:16.287Z,10.34
2023-03-29T06:12:49.521Z,10.29
2023-03-29T06:15:19.957Z,10.39
2023-03-29T06:17:51.002Z,10.46
2023-03-29T06:20:19.013Z,10.56
2023-03-29T06:22:52.749Z,10.73
2023-03-29T06:25:20.664Z,10.76
2023-03-29T06:27:50.842Z,10.93
2023-03-29T06:30:20.983Z,10.90
2023-03-29T06:32:54.928Z,10.93
2023-03-29T06:35:46.220Z,10.90
2023-03-29T06:38:17.563Z,10.97
2023-03-29T06:41:09.088Z,10.86
2023-03-29T06:43:57.862Z,11.01
2023-03-29T06:46:33.159Z,11.01
2023-03-29T06:49:06.550Z,11.04
2023-03-29T06:52:07.459Z,11.14
2023-03-29T06:54:36.156Z,11.35
2023-03-29T06:57:05.652Z,11.38
2023-03-29T06:59:35.010Z,11.51
2023-03-29T07:02:23.176Z,11.54
2023-03-29T07:04:56.340Z,11.58
2023-03-29T07:07:53.783Z,11.66
2023-03-29T07:10:38.541Z,11.59
2023-03-29T07:13:42.828Z,11.59
2023-03-29T07:16:14.440Z,11.45
2023-03-29T07:18:56.751Z,11.32
2023-03-29T07:21:54.554Z,11.47
2023-03-29T07:24:26.754Z,11.47
2023-03-29T07:27:03.151Z,11.52
2023-03-29T07:29:33.571Z,11.57
2023-03-29T07:32:01.612Z,11.65
2023-03-29T07:34:44.506Z,11.72
2023-03-29T07:37:24.813Z,11.81
2023-03-29T07:39:53.945Z,11.95
2023-03-29T07:42:50.905Z,11.99
2023-03-29T07:45:26.563Z,12.02
2023-03-29T07:48:02.373Z,12.07
2023-03-29T07:50:47.034Z,12.09
2023-03-29T07:53:16.088Z,12.10
2023-03-29T07:55:47.927Z,12.17
2023-03-29T07:58:35.252Z,12.03
2023-03-29T08:01:04.550Z,12.07
2023-03-29T08:03:55.813Z,12.09
2023-03-29T08:06:34.554Z,12.27
2023-03-29T08:09:02.459Z,12.32
2023-03-29T08:11:30.283Z,12.34
2023-03-29T08:14:04.067Z,12.53
2023-03-29T08:16:35.135Z,12.65
2023-03-29T08:19:09.013Z,12.71
2023-03-29T08:22:03.126Z,12.65
2023-03-29T08:24:46.658Z,12.72
2023-03-29T08:27:14.982Z,12.77
2023-03-29T08:29:42.964Z,12.72
2023-03-29T08:32:11.829Z,12.72
2023-03-29T08:34:39.735Z,12.71
2023-03-29T08:37:22.049Z,12.80
2023-03-29T08:39:52.049Z,12.82
2023-03-29T08:42:40.973Z,12.98
2023-03-29T08:45:42.417Z,12.99
2023-03-29T08:48:29.114Z,13.20
2023-03-29T08:51:13.572Z,13.18
2023-03-29T08:53:58.050Z,13.16
2023-03-29T08:56:36.177Z,13.26
2023-03-29T08:59:33.308Z,13.23
2023-03-29T09:02:17.920Z,13.11
2023-03-29T09:04:52.614Z,13.08
2023-03-29T09:07:31.911Z,13.06
2023-03-29T09:10:04.291Z,13.05
2023-03-29T09:13:06.332Z,13.19
2023-03-29T09:16:06.213Z,13.23
2023-03-29T09:19:10.915Z,13.32
2023-03-29T09:21:56.157Z,13.35
2023-03-29T09:24:43.862Z,13.18
2023-03-29T09:27:31.659Z,13.18
2023-03-29T09:30:32.328Z,13.12
2023-03-29T09:33:15.662Z,13.33
2023-03-29T09:36:27.592Z,13.44
2023-03-29T09:38:56.530Z,13.43
2023-03-29T09:41:30.624Z,13.40
2023-03-29T09:44:12.713Z,13.59
2023-03-29T09:46:57.172Z,13.92
2023-03-29T09:49:36.333Z,14.05
2023-03-29T09:52:14.866Z,14.21
2023-03-29T09:54:47.551Z,14.14
2023-03-29T09:57:24.081Z,14.21
2023-03-29T09:59:52.898Z,14.19
2023-03-29T10:02:22.411Z,14.21
2023-03-29T10:05:04.015Z,14.19
2023-03-29T10:07:46.381Z,14.29
2023-03-29T10:10:35.531Z,14.43
2023-03-29T10:13:13.395Z,14.36
2023-03-29T10:15:41.975Z,14.36
2023-03-29T10:18:14.222Z,14.55
2023-03-29T10:20:42.080Z,14.57
2023-03-29T10:23:17.622Z,14.69
2023-03-29T10:25:45.607Z,14.93
2023-03-29T10:28:18.688Z,14.69
2023-03-29T10:30:53.527Z,14.70
2023-03-29T10:33:24.505Z,14.60
2023-03-29T10:35:52.772Z,14.66
2023-03-29T10:38:28.015Z,14.67
2023-03-29T10:41:10.076Z,14.52
2023-03-29T10:43:47.002Z,14.43
2023-03-29T10:46:26.290Z,14.47
2023-03-29T10:49:10.157Z,14.35
2023-03-29T10:51:38.261Z,14.32
2023-03-29T10:54:14.027Z,14.59
2023-03-29T10:56:58.234Z,14.55
2023-03-29T10:59:40.722Z,14.86
2023-03-29T11:02:14.429Z,15.17
2023-03-29T11:05:09.578Z,15.41
2023-03-29T11:07:50.152Z,15.51
2023-03-29T11:10:27.253Z,15.76
2023-03-29T11:13:00.936Z,15.97
2023-03-29T11:16:08.501Z,16.23
2023-03-29T11:18:42.105Z,16.42
2023-03-29T11:21:26.790Z,16.69
2023-03-29T11:24:31.516Z,16.82
2023-03-29T11:27:11.913Z,16.67
2023-03-29T11:30:17.537Z,16.55
2023-03-29T11:33:25.389Z,16.76
2023-03-29T11:35:59.011Z,16.78
2023-03-29T11:38:35.761Z,16.88
2023-03-29T11:41:23.396Z,16.73
2023-03-29T11:44:13.553Z,16.75
2023-03-29T11:46:49.970Z,16.98
2023-03-29T11:49:37.166Z,17.03
2023-03-29T11:52:20.030Z,17.02
2023-03-29T11:55:03.714Z,17.17
2023-03-29T11:57:51.368Z,17.36
2023-03-29T12:00:33.286Z,17.34
2023-03-29T12:03:15.441Z,17.38
2023-03-29T12:05:49.628Z,17.26
2023-03-29T12:08:32.143Z,17.12
2023-03-29T12:11:12.059Z,17.23
2023-03-29T12:13:48.077Z,17.23
2023-03-29T12:16:37.431Z,17.10
2023-03-29T12:19:20.457Z,17.16
2023-03-29T12:21:51.019Z,17.22
2023-03-29T12:24:22.240Z,17.43
2023-03-29T12:26:53.028Z,17.64
2023-03-29T12:29:55.810Z,17.74
2023-03-29T12:32:48.089Z,17.79
2023-03-29T12:35:59.163Z,17.94
2023-03-29T12:38:51.450Z,17.95
2023-03-29T12:41:41.755Z,17.89
2023-03-29T12:44:23.636Z,17.84
2023-03-29T12:47:00.592Z,17.88
2023-03-29T12:49:40.172Z,17.91
2023-03-29T12:52:34.266Z,17.79
2023-03-29T12:55:16.980Z,17.63
2023-03-29T12:58:08.465Z,17.63
2023-03-29T13:00:45.128Z,17.81
2023-03-29T13:03:48.413Z,17.82
2023-03-29T13:06:29.479Z,17.85
2023-03-29T13:09:22.141Z,17.91
2023-03-29T13:11:58.772Z,17.96
2023-03-29T13:14:32.870Z,18.13
2023-03-29T13:17:18.344Z,18.10
2023-03-29T13:19:49.102Z,18.22
2023-03-29T13:22:35.855Z,18.26
2023-03-29T13:25:32.751Z,18.49
2023-03-29T13:28:27.250Z,18.60
2023-03-29T13:31:26.761Z,18.74
2023-03-29T13:34:28.491Z,18.80
2023-03-29T13:37:14.954Z,18.78
2023-03-29T13:39:53.099Z,18.70
2023-03-29T13:42:34.336Z,18.65
2023-03-29T13:45:26.450Z,18.81
2023-03-29T13:48:20.719Z,19.00
2023-03-29T13:50:58.524Z,19.16
2023-03-29T13:53:37.358Z,19.25
2023-03-29T13:56:11.169Z,19.28
2023-03-29T13:58:58.170Z,19.28
2023-03-29T14:01:58.381Z,19.14
2023-03-29T14:04:39.866Z,19.01
2023-03-29T14:07:12.612Z,18.85
2023-03-29T14:09:46.131Z,18.90
2023-03-29T14:12:15.902Z,18.67
2023-03-29T14:14:58.156Z,18.52
2023-03-29T14:17:26.818Z,18.39
2023-03-29T14:19:59.180Z,18.32
2023-03-29T14:22:33.680Z,18.29
2023-03-29T14:25:15.529Z,18.17
2023-03-29T14:27:43.905Z,18.15
2023-03-29T14:30:37.853Z,18.08
2023-03-29T14:33:05.637Z,18.09
2023-03-29T14:35:34.317Z,18.13
2023-03-29T14:38:03.802Z,18.12
2023-03-29T14:40:32.848Z,18.10
2023-03-29T14:43:08.089Z,18.12
2023-03-29T14:45:37.099Z,18.16
2023-03-29T14:48:06.432Z,18.22
2023-03-29T14:50:34.797Z,18.23
2023-03-29T14:53:04.073Z,18.26
2023-03-29T14:55:32.983Z,18.33
2023-03-29T14:58:00.697Z,18.40
2023-03-29T15:00:42.460Z,18.53
2023-03-29T15:03:15.475Z,18.53
2023-03-29T15:05:50.131Z,18.60
2023-03-29T15:08:28.118Z,18.61
2023-03-29T15:10:56.065Z,18.74
2023-03-29T15:13:26.303Z,18.87
2023-03-29T15:16:01.001Z,18.77
2023-03-29T15:18:40.175Z,18.80
2023-03-29T15:21:10.239Z,18.81
2023-03-29T15:23:48.133Z,18.71
2023-03-29T15:26:23.549Z,18.56
2023-03-29T15:28:55.724Z,18.40
2023-03-29T15:31:34.728Z,18.36
2023-03-29T15:34:09.246Z,18.35
2023-03-29T15:36:45.437Z,18.35
2023-03-29T15:39:17.156Z,18.33
2023-03-29T15:41:48.244Z,18.33
2023-03-29T15:44:17.875Z,18.25
2023-03-29T15:46:45.940Z,18.32
2023-03-29T15:49:14.122Z,18.32
2023-03-29T15:51:41.919Z,18.28
2023-03-29T15:54:09.687Z,18.35
2023-03-29T15:56:49.847Z,18.32
2023-03-29T15:59:18.193Z,18.10
2023-03-29T16:01:46.920Z,18.13
2023-03-29T16:04:17.843Z,18.17
2023-03-29T16:06:48.757Z,18.10
2023-03-29T16:09:17.039Z,18.13
2023-03-29T16:11:46.530Z,18.22
2023-03-29T16:14:27.465Z,18.29
2023-03-29T16:16:57.377Z,18.16
2023-03-29T16:19:27.179Z,18.10
2023-03-29T16:21:55.413Z,18.08
2023-03-29T16:24:26.356Z,17.98
2023-03-29T16:26:56.085Z,18.05
2023-03-29T16:29:25.399Z,17.94
2023-03-29T16:31:54.150Z,17.88
2023-03-29T16:34:22.986Z,17.84
2023-03-29T16:36:51.126Z,17.73
2023-03-29T16:39:19.572Z,17.78
2023-03-29T16:41:49.071Z,17.70
2023-03-29T16:44:22.974Z,17.67
2023-03-29T16:46:57.876Z,17.70
2023-03-29T16:49:25.641Z,17.73
2023-03-29T16:51:53.328Z,17.63
2023-03-29T16:54:21.242Z,17.55
2023-03-29T16:56:49.046Z,17.46
2023-03-29T16:59:16.812Z,17.47
2023-03-29T17:01:44.729Z,17.41
2023-03-29T17:04:12.564Z,17.37
2023-03-29T17:06:41.069Z,17.29
2023-03-29T17:09:09.755Z,17.24
2023-03-29T17:11:37.538Z,17.27
2023-03-29T17:14:05.239Z,17.07
2023-03-29T17:16:33.135Z,17.05
2023-03-29T17:19:01.071Z,17.03
2023-03-29T17:21:30.851Z,16.83
2023-03-29T17:23:58.590Z,16.88
2023-03-29T17:26:26.244Z,16.83
2023-03-29T17:28:54.015Z,16.78
2023-03-29T17:31:21.863Z,16.76
2023-03-29T17:33:52.177Z,16.69
2023-03-29T17:36:24.154Z,16.57
2023-03-29T17:38:52.731Z,16.67
2023-03-29T17:41:21.557Z,16.67
2023-03-29T17:43:50.945Z,16.59
2023-03-29T17:46:22.868Z,16.59
2023-03-29T17:48:51.960Z,16.55
2023-03-29T17:51:20.621Z,16.42
2023-03-29T17:53:48.318Z,16.51
2023-03-29T17:56:16.383Z,16.45
2023-03-29T17:58:44.023Z,16.37
2023-03-29T18:01:13.180Z,16.20
2023-03-29T18:03:41.394Z,16.32
2023-03-29T18:06:09.892Z,16.28
2023-03-29T18:08:37.731Z,16.20
2023-03-29T18:11:11.938Z,16.18
2023-03-29T18:13:40.349Z,16.17
2023-03-29T18:16:09.069Z,16.21
2023-03-29T18:18:37.976Z,16.32
2023-03-29T18:21:10.036Z,16.24
2023-03-29T18:23:43.321Z,16.20
2023-03-29T18:26:11.055Z,16.16
2023-03-29T18:28:38.803Z,16.04
2023-03-29T18:31:07.527Z,16.16
2023-03-29T18:33:35.893Z,16.04
2023-03-29T18:36:07.827Z,16.06
2023-03-29T18:38:40.801Z,16.07
2023-03-29T18:41:09.105Z,16.17
2023-03-29T18:43:38.773Z,16.17
2023-03-29T18:46:08.017Z,16.11
2023-03-29T18:48:39.094Z,16.14
2023-03-29T18:51:08.701Z,16.07
2023-03-29T18:53:37.798Z,16.10
2023-03-29T18:56:06.728Z,16.11
2023-03-29T18:58:34.921Z,16.00
2023-03-29T19:01:05.215Z,16.02
2023-03-29T19:03:34.554Z,15.92
2023-03-29T19:06:03.219Z,15.93
2023-03-29T19:08:32.940Z,15.86
2023-03-29T19:11:06.097Z,15.94
2023-03-29T19:13:34.489Z,15.86
2023-03-29T19:16:03.795Z,15.93
2023-03-29T19:18:31.769Z,15.92
2023-03-29T19:20:59.552Z,15.83
2023-03-29T19:23:28.535Z,15.89
2023-03-29T19:25:58.687Z,15.89
2023-03-29T19:28:27.462Z,16.00
2023-03-29T19:30:56.602Z,16.09
2023-03-29T19:33:24.690Z,16.06
2023-03-29T19:35:52.892Z,16.04
2023-03-29T19:38:21.547Z,16.03
2023-03-29T19:40:51.690Z,15.87
2023-03-29T19:43:20.786Z,15.82
2023-03-29T19:45:50.737Z,15.89
2023-03-29T19:50:51.392Z,16.00
2023-03-29T19:53:19.117Z,15.94
2023-03-29T19:55:46.945Z,15.83
2023-03-29T19:58:14.766Z,15.81
2023-03-29T20:00:42.471Z,15.85
2023-03-29T20:03:10.722Z,15.85
2023-03-29T20:05:40.144Z,15.89
2023-03-29T20:08:08.450Z,15.86
2023-03-29T20:10:37.225Z,15.93
2023-03-29T20:13:06.654Z,15.87
2023-03-29T20:15:35.090Z,15.86
2023-03-29T20:18:03.624Z,15.90
2023-03-29T20:20:31.834Z,15.86
2023-03-29T20:23:04.500Z,15.86
2023-03-29T20:25:36.570Z,15.83
2023-03-29T20:28:04.828Z,15.83
2023-03-29T20:30:32.680Z,15.83
2023-03-29T20:33:01.489Z,15.83
2023-03-29T20:35:29.382Z,15.87
2023-03-29T20:37:57.044Z,15.81
2023-03-29T20:40:25.008Z,15.85
2023-03-29T20:42:54.351Z,15.87
2023-03-29T20:45:22.363Z,15.86
2023-03-29T20:48:02.456Z,15.87
2023-03-29T20:50:30.548Z,15.83
2023-03-29T20:53:03.688Z,15.76
2023-03-29T20:55:33.555Z,15.74
2023-03-29T20:58:02.332Z,15.76
2023-03-29T21:00:32.649Z,15.74
2023-03-29T21:03:00.864Z,15.79
2023-03-29T21:05:32.322Z,15.87
2023-03-29T21:08:01.036Z,15.85
2023-03-29T21:10:29.725Z,15.82
2023-03-29T21:13:00.654Z,15.81
2023-03-29T21:15:31.085Z,15.81
2023-03-29T21:17:59.524Z,15.82
2023-03-29T21:20:27.680Z,15.92
2023-03-29T21:22:55.720Z,15.85
2023-03-29T21:25:23.499Z,15.85
2023-03-29T21:27:51.303Z,15.83
2023-03-29T21:30:19.273Z,15.85
2023-03-29T21:32:47.106Z,15.81
2023-03-29T21:35:14.882Z,15.78
2023-03-29T21:37:42.679Z,15.78
2023-03-29T21:40:11.376Z,15.81
2023-03-29T21:42:39.191Z,15.79
2023-03-29T21:45:07.784Z,15.89
2023-03-29T21:47:35.916Z,15.85
2023-03-29T21:50:03.857Z,15.97
2023-03-29T21:52:31.774Z,15.94
2023-03-29T21:54:59.489Z,15.87
2023-03-29T21:57:27.209Z,15.92
2023-03-29T21:59:55.017Z,15.89
2023-03-29T22:02:23.132Z,15.82
2023-03-29T22:04:51.059Z,15.79
2023-03-29T22:07:22.828Z,15.72
2023-03-29T22:09:50.805Z,15.74
2023-03-29T22:12:18.818Z,15.86
2023-03-29T22:14:47.488Z,15.82
2023-03-29T22:17:16.106Z,15.79
2023-03-29T22:19:43.993Z,15.79
2023-03-29T22:22:14.737Z,15.81
2023-03-29T22:24:42.897Z,15.87
2023-03-29T22:27:11.864Z,15.86
2023-03-29T22:29:40.131Z,15.86
2023-03-29T22:32:08.078Z,15.92
2023-03-29T22:34:36.009Z,15.87
2023-03-29T22:37:03.927Z,15.93
2023-03-29T22:39:34.509Z,15.96
2023-03-29T22:42:02.451Z,15.92
2023-03-29T22:44:30.698Z,15.92
2023-03-29T22:46:58.535Z,15.93
2023-03-29T22:49:26.393Z,15.96
2023-03-29T22:51:54.121Z,15.96
2023-03-29T22:54:22.045Z,16.07
2023-03-29T22:56:49.916Z,16.06
2023-03-29T22:59:17.707Z,16.18
2023-03-29T23:01:46.021Z,16.25
2023-03-29T23:04:14.365Z,16.31
2023-03-29T23:06:42.676Z,16.34
2023-03-29T23:09:10.710Z,16.23
2023-03-29T23:11:38.417Z,16.32
2023-03-29T23:14:06.406Z,16.32
2023-03-29T23:16:34.425Z,16.37
2023-03-29T23:19:03.251Z,16.37
2023-03-29T23:21:31.168Z,16.34
2023-03-29T23:23:59.020Z,16.42
2023-03-29T23:26:27.870Z,16.41
2023-03-29T23:28:57.631Z,16.35
2023-03-29T23:31:25.604Z,16.37
2023-03-29T23:33:53.567Z,16.41
2023-03-29T23:36:27.206Z,16.38
2023-03-29T23:38:54.982Z,16.32
2023-03-29T23:41:23.061Z,16.32
2023-03-29T23:43:52.377Z,16.37
2023-03-29T23:46:21.491Z,16.30
2023-03-29T23:48:50.824Z,16.35
2023-03-29T23:51:23.346Z,16.35
2023-03-29T23:53:51.846Z,16.24
2023-03-29T23:56:21.492Z,16.23
2023-03-29T23:58:49.637Z,16.14
